Time;durP1;ratioP1;P1;durP2;ratioP2;P2;SDS_P1;SDS_P2;PMS_P1;PMS_P2;Temp;Humidity;BMP_temperature;BMP_pressure;BME280_temperature;BME280_humidity;BME280_pressure;Samples;Min_cycle;Max_cycle;Signal;HPM_P1;HPM_P2
2022/08/23 00:01:25;;;;;;;7.25;4.07;;;17.30;99.90;;;;;;5048222;28;20053;-71
2022/08/23 00:03:52;;;;;;;8.77;4.35;;;17.30;99.90;;;;;;5057558;28;20056;-71
2022/08/23 00:06:18;;;;;;;10.30;4.15;;;17.20;99.90;;;;;;5048742;28;20047;-71
2022/08/23 00:08:44;;;;;;;13.25;4.53;;;17.20;99.90;;;;;;5050517;28;20468;-71
2022/08/23 00:11:27;;;;;;;10.70;5.80;;;17.20;99.90;;;;;;5044747;28;20054;-71
2022/08/23 00:13:53;;;;;;;11.25;4.85;;;17.10;99.90;;;;;;5044614;28;20393;-71
2022/08/23 00:16:20;;;;;;;9.10;4.40;;;17.10;99.90;;;;;;5048225;28;20040;-71
2022/08/23 00:18:46;;;;;;;10.85;5.78;;;17.10;99.90;;;;;;5041324;28;20131;-71
2022/08/23 00:21:12;;;;;;;9.55;5.05;;;17.10;99.90;;;;;;5040546;28;20041;-71
2022/08/23 00:23:38;;;;;;;9.93;5.30;;;17.10;99.90;;;;;;5039434;28;20053;-71
2022/08/23 00:26:04;;;;;;;9.75;5.82;;;17.00;99.90;;;;;;5042755;28;20036;-71
2022/08/23 00:28:31;;;;;;;10.52;4.63;;;17.00;99.90;;;;;;5042380;28;20045;-71
2022/08/23 00:30:58;;;;;;;7.32;4.53;;;16.90;99.90;;;;;;5041566;28;20049;-71
2022/08/23 00:33:24;;;;;;;11.65;5.03;;;16.90;99.90;;;;;;5048305;28;20057;-71
2022/08/23 00:35:50;;;;;;;9.05;5.13;;;16.90;99.90;;;;;;5029905;28;20363;-71
2022/08/23 00:38:16;;;;;;;10.23;5.88;;;16.90;99.90;;;;;;5045214;28;20048;-71
2022/08/23 00:40:44;;;;;;;8.60;6.25;;;16.90;99.90;;;;;;5056462;28;20043;-71
2022/08/23 00:49:08;;;;;;;12.48;6.97;;;16.80;99.90;;;;;;5058060;28;20060;-70
2022/08/23 00:51:40;;;;;;;12.93;7.55;;;16.70;99.90;;;;;;5041740;28;20036;-71
2022/08/23 00:54:08;;;;;;;13.27;7.18;;;16.70;99.90;;;;;;5041238;28;20045;-71
2022/08/23 00:56:35;;;;;;;12.90;8.00;;;16.70;99.90;;;;;;5042150;28;20037;-70
2022/08/23 00:59:02;;;;;;;12.85;7.07;;;16.70;99.90;;;;;;5044055;28;20082;-70
2022/08/23 01:01:28;;;;;;;8.57;6.47;;;16.70;99.90;;;;;;5044196;28;20140;-71
2022/08/23 01:03:57;;;;;;;16.45;8.77;;;16.70;99.90;;;;;;5043923;28;20119;-71
2022/08/23 01:06:48;;;;;;;13.43;8.77;;;16.70;99.90;;;;;;5047348;28;20040;-71
2022/08/23 01:09:18;;;;;;;12.43;7.90;;;16.70;99.90;;;;;;5044833;28;20650;-71
2022/08/23 01:12:14;;;;;;;12.25;7.80;;;16.70;99.90;;;;;;5036482;28;20055;-70
2022/08/23 01:14:58;;;;;;;9.27;7.10;;;16.70;99.90;;;;;;5045735;28;20123;-70
2022/08/23 01:17:29;;;;;;;10.00;7.57;;;16.60;99.90;;;;;;5042055;28;20131;-70
2022/08/23 01:20:17;;;;;;;11.02;7.10;;;16.60;99.90;;;;;;5042552;28;20106;-70
2022/08/23 01:22:54;;;;;;;13.18;7.07;;;16.60;99.90;;;;;;5045420;28;20052;-70
2022/08/23 01:25:22;;;;;;;10.23;6.47;;;16.50;99.90;;;;;;5040187;28;20045;-70
2022/08/23 01:27:49;;;;;;;10.27;5.93;;;16.50;99.90;;;;;;5044105;28;20047;-70
2022/08/23 01:30:18;;;;;;;10.63;5.95;;;16.50;99.90;;;;;;5045050;28;20037;-70
2022/08/23 01:32:51;;;;;;;9.68;5.75;;;16.40;99.90;;;;;;5053906;28;20048;-70
2022/08/23 01:35:19;;;;;;;11.05;5.93;;;16.40;99.90;;;;;;5044758;28;20055;-70
2022/08/23 01:37:45;;;;;;;9.50;5.93;;;16.40;99.90;;;;;;5041117;28;20096;-70
2022/08/23 01:40:12;;;;;;;9.40;5.63;;;16.30;99.90;;;;;;5041037;28;20116;-70
2022/08/23 01:42:40;;;;;;;9.23;6.00;;;16.30;99.90;;;;;;5026854;28;20068;-70
2022/08/23 01:45:10;;;;;;;10.98;6.28;;;16.30;99.90;;;;;;5041541;28;20037;-70
2022/08/23 01:47:36;;;;;;;10.63;7.07;;;16.30;99.90;;;;;;5046092;28;20075;-70
2022/08/23 01:50:03;;;;;;;14.38;7.35;;;16.20;99.90;;;;;;5039468;28;20032;-70
2022/08/23 01:52:28;;;;;;;9.90;6.63;;;16.20;99.90;;;;;;5046590;28;20416;-70
2022/08/23 01:54:56;;;;;;;9.95;7.00;;;16.20;99.90;;;;;;5037634;28;20046;-70
2022/08/23 01:57:22;;;;;;;13.85;9.10;;;16.10;99.90;;;;;;5049869;28;20404;-70
2022/08/23 01:59:48;;;;;;;14.32;7.18;;;16.10;99.90;;;;;;5038933;28;20040;-70
2022/08/23 02:02:14;;;;;;;12.45;7.82;;;16.10;99.90;;;;;;5045515;28;20048;-70
2022/08/23 02:04:40;;;;;;;12.88;10.27;;;16.10;99.90;;;;;;5046499;28;20071;-70
2022/08/23 02:07:05;;;;;;;18.52;10.85;;;16.10;99.90;;;;;;5050715;28;20521;-70
2022/08/23 02:09:31;;;;;;;18.75;11.23;;;16.00;99.90;;;;;;5029163;28;20092;-70
2022/08/23 02:11:57;;;;;;;19.98;12.77;;;16.10;99.90;;;;;;5065027;28;20037;-70
2022/08/23 02:14:23;;;;;;;18.17;11.50;;;16.10;99.90;;;;;;5043132;28;20437;-70
2022/08/23 02:16:52;;;;;;;17.52;12.20;;;16.10;99.90;;;;;;5046049;28;20441;-70
2022/08/23 02:19:19;;;;;;;16.33;12.48;;;16.10;99.90;;;;;;5044919;28;20071;-70
2022/08/23 02:21:45;;;;;;;13.75;11.52;;;16.10;99.90;;;;;;5045940;28;20096;-70
2022/08/23 02:24:14;;;;;;;20.25;12.70;;;16.10;99.90;;;;;;5024589;28;20050;-70
2022/08/23 02:26:44;;;;;;;14.27;12.00;;;16.10;99.90;;;;;;5048942;28;20121;-70
2022/08/23 02:29:11;;;;;;;18.33;11.45;;;16.10;99.90;;;;;;5042750;28;20543;-70
2022/08/23 02:31:38;;;;;;;13.05;10.90;;;16.00;99.90;;;;;;5046479;28;20119;-70
2022/08/23 02:34:04;;;;;;;12.65;10.63;;;16.00;99.90;;;;;;5047353;28;20063;-70
2022/08/23 02:36:31;;;;;;;11.02;9.85;;;16.00;99.90;;;;;;5030614;28;20044;-70
2022/08/23 02:38:57;;;;;;;10.45;8.57;;;15.90;99.90;;;;;;5047165;28;20052;-70
2022/08/23 02:41:24;;;;;;;11.30;8.57;;;15.90;99.90;;;;;;5042845;28;20512;-70
2022/08/23 02:43:53;;;;;;;11.07;8.27;;;15.90;99.90;;;;;;5024147;28;20037;-70
2022/08/23 02:46:20;;;;;;;9.50;8.65;;;15.90;99.90;;;;;;5040522;28;20052;-70
2022/08/23 02:48:46;;;;;;;11.68;8.50;;;15.90;99.90;;;;;;5039733;28;20033;-70
2022/08/23 02:51:12;;;;;;;11.05;9.85;;;15.90;99.90;;;;;;5043589;28;20064;-70
2022/08/23 02:53:38;;;;;;;12.82;10.75;;;15.80;99.90;;;;;;5047750;28;20128;-70
2022/08/23 02:56:04;;;;;;;12.73;11.27;;;15.80;99.90;;;;;;5035501;28;20495;-70
2022/08/23 02:58:31;;;;;;;15.85;11.75;;;15.80;99.90;;;;;;5047859;28;20079;-70
2022/08/23 03:00:57;;;;;;;13.43;12.02;;;15.70;99.90;;;;;;5045207;28;20060;-70
2022/08/23 03:03:23;;;;;;;15.35;12.00;;;15.70;99.90;;;;;;5044216;28;20041;-70
2022/08/23 03:05:49;;;;;;;15.00;13.18;;;15.70;99.90;;;;;;5044117;28;20044;-70
2022/08/23 03:08:16;;;;;;;20.23;13.13;;;15.70;99.90;;;;;;5061454;28;20101;-70
2022/08/23 03:10:43;;;;;;;18.13;13.95;;;15.70;99.90;;;;;;5042402;28;20071;-70
2022/08/23 03:13:10;;;;;;;15.43;12.85;;;15.70;99.90;;;;;;5041795;28;20055;-70
2022/08/23 03:15:36;;;;;;;16.77;13.45;;;15.60;99.90;;;;;;5041794;28;20504;-70
2022/08/23 03:18:02;;;;;;;17.10;12.82;;;15.60;99.90;;;;;;5045143;28;20044;-70
2022/08/23 03:20:28;;;;;;;15.48;11.50;;;15.60;99.90;;;;;;5046276;28;20376;-70
2022/08/23 03:22:54;;;;;;;12.25;11.00;;;15.60;99.90;;;;;;5046126;28;20106;-70
2022/08/23 03:25:20;;;;;;;13.40;11.75;;;15.50;99.90;;;;;;5027469;28;20163;-70
2022/08/23 03:27:46;;;;;;;13.05;11.68;;;15.50;99.90;;;;;;5039862;28;20463;-70
2022/08/23 03:30:12;;;;;;;16.17;11.25;;;15.50;99.90;;;;;;5038984;28;20029;-70
2022/08/23 03:32:38;;;;;;;14.63;10.73;;;15.50;99.90;;;;;;5046526;28;20082;-70
2022/08/23 03:35:05;;;;;;;12.65;11.10;;;15.50;99.90;;;;;;5056621;28;20108;-71
2022/08/23 03:37:31;;;;;;;14.25;12.52;;;15.40;99.90;;;;;;5048073;28;20468;-70
2022/08/23 03:39:57;;;;;;;12.98;11.73;;;15.40;99.90;;;;;;5041306;28;20128;-70
2022/08/23 03:42:23;;;;;;;10.95;9.85;;;15.40;99.90;;;;;;5061890;28;20047;-70
2022/08/23 03:44:49;;;;;;;12.45;10.77;;;15.40;99.90;;;;;;5043375;28;20039;-70
2022/08/23 03:47:14;;;;;;;12.90;11.57;;;15.40;99.90;;;;;;5044616;28;20044;-70
2022/08/23 03:49:40;;;;;;;14.38;11.65;;;15.40;99.90;;;;;;5047325;28;20059;-70
2022/08/23 03:52:07;;;;;;;15.57;12.82;;;15.40;99.90;;;;;;5065793;28;20055;-70
2022/08/23 03:54:33;;;;;;;14.52;13.00;;;15.40;99.90;;;;;;5049959;28;20131;-70
2022/08/23 03:57:02;;;;;;;15.20;12.32;;;15.40;99.90;;;;;;5039884;28;20076;-70
2022/08/23 03:59:31;;;;;;;16.05;12.95;;;15.40;99.90;;;;;;5045636;28;20423;-70
2022/08/23 04:01:57;;;;;;;15.98;14.38;;;15.40;99.90;;;;;;5045830;28;20139;-70
2022/08/23 04:04:23;;;;;;;15.90;14.20;;;15.40;99.90;;;;;;5045695;28;20387;-70
2022/08/23 04:06:49;;;;;;;18.92;14.20;;;15.40;99.90;;;;;;5046134;28;20037;-70
2022/08/23 04:09:15;;;;;;;14.65;13.27;;;15.40;99.90;;;;;;5042734;28;20628;-70
2022/08/23 04:11:42;;;;;;;16.30;13.43;;;15.40;99.90;;;;;;5047266;28;20127;-69
2022/08/23 04:14:08;;;;;;;16.08;13.57;;;15.40;99.90;;;;;;5038752;28;20064;-69
2022/08/23 04:16:39;;;;;;;15.88;13.75;;;15.40;99.90;;;;;;5043586;28;20123;-69
2022/08/23 04:19:14;;;;;;;14.18;12.60;;;15.30;99.90;;;;;;5040511;28;20045;-70
2022/08/23 04:21:44;;;;;;;13.55;12.15;;;15.30;99.90;;;;;;5045386;28;20063;-70
2022/08/23 04:24:10;;;;;;;15.35;11.65;;;15.30;99.90;;;;;;5059152;28;20263;-70
2022/08/23 04:26:36;;;;;;;13.63;12.27;;;15.30;99.90;;;;;;5046323;28;20064;-70
2022/08/23 04:29:02;;;;;;;18.00;13.45;;;15.30;99.90;;;;;;5060221;28;20033;-70
2022/08/23 04:31:28;;;;;;;13.38;11.98;;;15.20;99.90;;;;;;5044827;28;20395;-70
2022/08/23 04:33:55;;;;;;;12.73;11.52;;;15.20;99.90;;;;;;5044698;28;20036;-70
2022/08/23 04:36:21;;;;;;;12.70;11.50;;;15.20;99.90;;;;;;5047075;28;20089;-70
2022/08/23 04:38:47;;;;;;;12.60;10.50;;;15.20;99.90;;;;;;5047361;28;20075;-70
2022/08/23 04:43:57;;;;;;;12.10;10.80;;;15.20;99.90;;;;;;5033593;28;20462;-70
2022/08/23 04:46:23;;;;;;;13.60;11.60;;;15.20;99.90;;;;;;5039995;28;20044;-70
2022/08/23 04:48:49;;;;;;;15.98;12.73;;;15.20;99.90;;;;;;5035997;28;20072;-70
2022/08/23 04:51:15;;;;;;;15.75;12.90;;;15.20;99.90;;;;;;5041667;28;20487;-70
2022/08/23 04:53:41;;;;;;;14.80;12.23;;;15.20;99.90;;;;;;5046136;28;20037;-71
2022/08/23 04:56:07;;;;;;;18.40;14.23;;;15.10;99.90;;;;;;5043561;28;20056;-69
2022/08/23 04:58:35;;;;;;;16.33;13.55;;;15.20;99.90;;;;;;5039137;28;20434;-69
2022/08/23 05:01:04;;;;;;;16.45;14.25;;;15.10;99.90;;;;;;5044314;28;20049;-70
2022/08/23 05:03:30;;;;;;;15.88;14.25;;;15.20;99.90;;;;;;5039145;28;20043;-70
2022/08/23 05:05:57;;;;;;;17.50;15.63;;;15.20;99.90;;;;;;5043364;28;20105;-70
2022/08/23 05:08:23;;;;;;;18.33;15.35;;;15.20;99.90;;;;;;5045302;28;20054;-70
2022/08/23 05:10:49;;;;;;;19.08;17.13;;;15.20;99.90;;;;;;5040949;28;20049;-70
2022/08/23 05:13:15;;;;;;;18.52;15.43;;;15.20;99.90;;;;;;5040584;28;20500;-70
2022/08/23 05:15:41;;;;;;;21.17;17.55;;;15.30;99.90;;;;;;5027151;28;20127;-70
2022/08/23 05:18:07;;;;;;;20.45;18.48;;;15.30;99.90;;;;;;5045138;28;20123;-70
2022/08/23 05:20:33;;;;;;;21.92;18.38;;;15.40;99.90;;;;;;5045585;28;20129;-70
2022/08/23 05:23:00;;;;;;;18.35;16.38;;;15.40;99.90;;;;;;5048822;28;20044;-70
2022/08/23 05:25:48;;;;;;;20.65;17.52;;;15.50;99.90;;;;;;5040895;28;20075;-70
2022/08/23 05:28:11;;;;;;;21.17;16.67;;;15.50;99.90;;;;;;5039228;28;20593;-70
2022/08/23 05:30:37;;;;;;;22.85;18.02;;;15.60;99.90;;;;;;5037626;28;20043;-70
2022/08/23 05:33:04;;;;;;;19.38;17.48;;;15.70;99.90;;;;;;5045685;28;20134;-70
2022/08/23 05:35:30;;;;;;;19.08;17.10;;;15.70;99.90;;;;;;5040833;28;20123;-71
2022/08/23 05:37:58;;;;;;;18.73;16.67;;;15.90;99.90;;;;;;5046617;28;20112;-71
2022/08/23 05:40:25;;;;;;;19.80;17.80;;;16.10;99.90;;;;;;5041479;28;20596;-71
2022/08/23 05:42:51;;;;;;;20.70;17.20;;;16.30;99.90;;;;;;5049617;28;20507;-71
2022/08/23 05:45:17;;;;;;;17.70;16.05;;;16.70;99.90;;;;;;5044582;28;20059;-71
2022/08/23 05:47:43;;;;;;;17.48;15.68;;;16.90;99.90;;;;;;5050474;28;20037;-69
2022/08/23 05:50:09;;;;;;;18.15;14.90;;;17.10;99.90;;;;;;5043958;28;20040;-69
2022/08/23 05:52:34;;;;;;;16.20;14.50;;;17.40;99.90;;;;;;5050847;28;20460;-69
2022/08/23 05:55:01;;;;;;;18.40;14.10;;;17.90;99.90;;;;;;5045906;28;20079;-69
2022/08/23 05:57:27;;;;;;;16.02;14.38;;;18.10;99.90;;;;;;5048068;28;20049;-71
2022/08/23 05:59:53;;;;;;;14.23;12.82;;;18.10;99.90;;;;;;5038430;28;20057;-70
2022/08/23 06:02:18;;;;;;;14.77;13.35;;;18.10;99.90;;;;;;5048135;28;20132;-69
2022/08/23 06:04:44;;;;;;;14.35;13.02;;;18.10;99.90;;;;;;5043672;28;20133;-70
2022/08/23 06:07:10;;;;;;;15.68;13.05;;;18.00;99.90;;;;;;5049037;28;20045;-69
2022/08/23 06:09:36;;;;;;;16.77;12.63;;;18.10;99.90;;;;;;5049890;28;20376;-69
2022/08/23 06:12:02;;;;;;;14.35;12.82;;;18.10;99.90;;;;;;5049398;28;20385;-69
2022/08/23 06:14:28;;;;;;;15.93;12.77;;;18.20;99.90;;;;;;5047647;28;20131;-69
2022/08/23 06:16:54;;;;;;;15.18;12.25;;;18.20;99.90;;;;;;5048572;28;20568;-69
2022/08/23 06:19:20;;;;;;;15.32;12.25;;;18.20;99.90;;;;;;5030428;28;20167;-69
2022/08/23 06:21:46;;;;;;;13.35;11.75;;;18.30;99.90;;;;;;5032050;28;20044;-69
2022/08/23 06:24:12;;;;;;;12.73;11.43;;;18.30;99.90;;;;;;5044027;28;20157;-69
2022/08/23 06:26:41;;;;;;;15.40;12.27;;;18.30;99.90;;;;;;5049087;28;20098;-70
2022/08/23 06:29:13;;;;;;;12.73;11.38;;;18.50;99.90;;;;;;5029210;28;20048;-70
2022/08/23 06:31:47;;;;;;;14.07;11.10;;;18.50;99.90;;;;;;5048586;28;20498;-69
2022/08/23 06:34:34;;;;;;;13.10;11.60;;;18.70;99.90;;;;;;5049760;28;20049;-69
2022/08/23 06:37:14;;;;;;;12.57;11.38;;;18.80;99.90;;;;;;5049888;28;20456;-69
2022/08/23 06:39:40;;;;;;;11.75;9.80;;;19.00;99.90;;;;;;5049920;28;20044;-69
2022/08/23 06:42:12;;;;;;;14.55;9.32;;;19.10;99.90;;;;;;5069282;28;20029;-69
2022/08/23 06:44:38;;;;;;;14.63;9.85;;;19.30;99.90;;;;;;5037529;28;20063;-70
2022/08/23 06:47:05;;;;;;;10.63;8.70;;;19.40;99.90;;;;;;5041427;28;20128;-69
2022/08/23 06:49:31;;;;;;;9.80;8.73;;;19.50;99.90;;;;;;5052646;28;20045;-70
2022/08/23 06:51:58;;;;;;;10.27;8.50;;;19.70;99.90;;;;;;5046475;28;20040;-70
2022/08/23 06:54:27;;;;;;;9.18;8.23;;;19.80;99.90;;;;;;5068304;28;20381;-70
2022/08/23 06:56:54;;;;;;;8.95;8.07;;;19.90;99.90;;;;;;5050731;28;20043;-70
2022/08/23 06:59:20;;;;;;;10.23;8.15;;;20.00;99.90;;;;;;5061423;28;20056;-70
2022/08/23 07:02:05;;;;;;;10.00;9.00;;;20.10;99.90;;;;;;5047526;28;20057;-71
2022/08/23 07:04:34;;;;;;;8.80;7.82;;;20.20;99.90;;;;;;5041269;28;20120;-71
2022/08/23 07:07:00;;;;;;;9.60;7.72;;;20.40;99.90;;;;;;5048604;28;20041;-71
2022/08/23 07:09:27;;;;;;;9.20;7.70;;;20.50;99.90;;;;;;5060681;28;20029;-71
2022/08/23 07:11:54;;;;;;;8.55;7.60;;;20.50;99.90;;;;;;5050777;28;20122;-71
2022/08/23 07:14:21;;;;;;;7.97;6.63;;;20.50;99.90;;;;;;5040350;28;20109;-71
2022/08/23 07:16:58;;;;;;;9.98;7.72;;;20.60;99.90;;;;;;5049905;28;20410;-71
2022/08/23 07:19:27;;;;;;;8.98;6.93;;;20.70;99.90;;;;;;5045222;28;20063;-71
2022/08/23 07:21:53;;;;;;;8.13;7.32;;;20.80;99.90;;;;;;5046593;28;20056;-71
2022/08/23 07:24:20;;;;;;;10.48;7.38;;;21.00;99.90;;;;;;5046371;28;20044;-71
2022/08/23 07:26:48;;;;;;;9.02;7.35;;;21.10;99.90;;;;;;5046688;28;20048;-71
2022/08/23 07:29:15;;;;;;;8.48;7.28;;;21.10;99.90;;;;;;5048643;28;20052;-71
2022/08/23 07:31:50;;;;;;;8.88;6.63;;;21.10;99.90;;;;;;5047771;28;20037;-71
2022/08/23 07:34:16;;;;;;;8.15;7.32;;;21.10;99.90;;;;;;5064729;28;20044;-71
2022/08/23 07:36:43;;;;;;;8.70;7.10;;;21.10;99.90;;;;;;5047848;28;20090;-71
2022/08/23 07:39:09;;;;;;;9.77;7.00;;;21.20;99.90;;;;;;5043868;28;20040;-71
2022/08/23 07:41:37;;;;;;;9.65;6.88;;;21.30;99.90;;;;;;5045495;28;20548;-70
2022/08/23 07:44:04;;;;;;;9.07;6.68;;;21.40;99.90;;;;;;5043934;28;20033;-71
2022/08/23 07:46:31;;;;;;;9.77;7.18;;;21.50;99.90;;;;;;5042194;28;20496;-71
2022/08/23 07:48:59;;;;;;;9.60;7.70;;;21.50;99.90;;;;;;5049003;28;20045;-71
2022/08/23 07:51:26;;;;;;;8.65;7.20;;;21.50;99.90;;;;;;5048981;28;20048;-71
2022/08/23 07:53:51;;;;;;;10.40;6.45;;;21.70;99.90;;;;;;5043573;28;20127;-71
2022/08/23 07:56:19;;;;;;;8.35;6.90;;;22.00;99.90;;;;;;5046402;28;20269;-71
2022/08/23 07:58:44;;;;;;;10.40;6.78;;;22.40;99.90;;;;;;5032772;28;20556;-71
2022/08/23 08:01:29;;;;;;;10.43;6.53;;;23.00;99.90;;;;;;5041588;28;20128;-70
2022/08/23 08:03:55;;;;;;;;;;;23.30;99.90;;;;;;5065569;28;20115;-71
2022/08/23 08:06:28;;;;;;;9.63;6.00;;;23.50;99.90;;;;;;5045989;28;19920;-71
2022/08/23 08:08:54;;;;;;;8.43;5.78;;;23.90;99.90;;;;;;5031286;28;20040;-70
2022/08/23 08:11:21;;;;;;;7.95;6.13;;;24.10;99.90;;;;;;5045459;28;20123;-70
2022/08/23 08:13:49;;;;;;;7.15;5.85;;;24.10;99.90;;;;;;5043501;28;20056;-70
2022/08/23 08:16:32;;;;;;;6.63;5.63;;;24.50;99.90;;;;;;5040545;28;20069;-66
2022/08/23 08:19:00;;;;;;;7.97;5.85;;;25.00;99.90;;;;;;5056454;28;20041;-69
2022/08/23 08:21:27;;;;;;;6.15;5.00;;;25.30;99.90;;;;;;5054848;28;20123;-68
2022/08/23 08:23:54;;;;;;;8.45;4.93;;;25.60;99.90;;;;;;5062988;28;20078;-70
2022/08/23 08:26:21;;;;;;;6.90;4.80;;;25.80;99.90;;;;;;5067555;28;20480;-68
2022/08/23 08:28:47;;;;;;;6.18;4.03;;;26.60;99.90;;;;;;5063355;28;20041;-68
2022/08/23 08:31:13;;;;;;;10.88;5.18;;;26.90;98.00;;;;;;5063476;28;20419;-71
2022/08/23 08:33:39;;;;;;;4.47;3.97;;;27.00;97.10;;;;;;5062958;28;20041;-72
2022/08/23 08:36:06;;;;;;;6.30;4.40;;;27.70;96.10;;;;;;5049157;28;20036;-70
2022/08/23 08:38:33;;;;;;;6.50;4.28;;;28.10;93.70;;;;;;5067651;28;20028;-70
2022/08/23 08:41:18;;;;;;;6.93;4.93;;;28.10;92.40;;;;;;5046513;28;20076;-70
2022/08/23 08:44:02;;;;;;;29.63;5.80;;;27.80;88.50;;;;;;5047967;28;20136;-71
2022/08/23 08:46:44;;;;;;;;;;;27.50;90.60;;;;;;5057545;28;20680;-71
2022/08/23 08:49:23;;;;;;;6.28;3.65;;;27.10;90.20;;;;;;5048878;28;19927;-70
2022/08/23 08:51:55;;;;;;;6.93;3.92;;;26.90;90.70;;;;;;5064859;28;20044;-70
2022/08/23 08:54:25;;;;;;;7.60;4.65;;;26.90;90.70;;;;;;5046503;28;20068;-70
2022/08/23 08:56:54;;;;;;;6.75;4.45;;;26.90;90.20;;;;;;5065966;28;20037;-70
2022/08/23 08:59:24;;;;;;;5.82;3.88;;;26.80;90.40;;;;;;5047179;28;20063;-70
2022/08/23 09:01:50;;;;;;;8.38;3.78;;;26.90;91.50;;;;;;5060483;28;20055;-70
2022/08/23 09:04:16;;;;;;;5.47;3.47;;;27.10;91.60;;;;;;5043814;28;20388;-70
2022/08/23 09:07:02;;;;;;;6.25;3.58;;;27.30;90.20;;;;;;5044153;28;20068;-70
2022/08/23 09:09:56;;;;;;;7.00;5.35;;;27.50;90.50;;;;;;5043028;28;20041;-70
2022/08/23 09:12:36;;;;;;;6.88;4.28;;;27.50;86.80;;;;;;5065520;28;20102;-70
2022/08/23 09:15:19;;;;;;;6.55;3.83;;;27.40;88.10;;;;;;5042627;28;20040;-71
2022/08/23 09:17:57;;;;;;;5.65;3.97;;;27.20;88.00;;;;;;5027609;28;20056;-70
2022/08/23 09:20:27;;;;;;;5.50;3.78;;;27.20;86.90;;;;;;5029685;28;20185;-70
2022/08/23 09:23:05;;;;;;;6.90;3.88;;;27.40;88.00;;;;;;5065303;28;20511;-70
2022/08/23 09:25:31;;;;;;;7.57;3.65;;;28.00;86.10;;;;;;5065637;28;20041;-70
2022/08/23 09:27:57;;;;;;;8.02;3.50;;;28.50;86.00;;;;;;5069462;28;20033;-71
2022/08/23 09:30:45;;;;;;;7.63;4.15;;;28.70;83.90;;;;;;5062905;28;20036;-71
2022/08/23 09:33:24;;;;;;;7.28;3.45;;;28.70;81.50;;;;;;5045241;28;20036;-69
2022/08/23 09:36:04;;;;;;;8.45;3.42;;;28.70;79.30;;;;;;5049725;28;20376;-71
2022/08/23 09:38:31;;;;;;;8.40;3.78;;;29.20;76.00;;;;;;5045477;28;20703;-71
2022/08/23 09:40:57;;;;;;;4.45;2.80;;;29.40;77.60;;;;;;5044750;28;20095;-71
2022/08/23 09:43:26;;;;;;;6.43;3.30;;;30.00;78.90;;;;;;5049070;28;20041;-71
2022/08/23 09:45:52;;;;;;;6.18;4.68;;;30.70;75.70;;;;;;5045562;28;20048;-70
2022/08/23 09:48:39;;;;;;;8.50;4.40;;;31.40;72.20;;;;;;5046873;28;20044;-71
2022/08/23 09:51:23;;;;;;;7.10;4.57;;;31.60;70.30;;;;;;5049939;28;20041;-71
2022/08/23 09:54:18;;;;;;;14.18;10.95;;;31.50;66.20;;;;;;5064496;28;20051;-71
2022/08/23 09:56:56;;;;;;;7.65;4.07;;;31.40;64.50;;;;;;5067211;28;20091;-71
2022/08/23 09:59:38;;;;;;;7.85;4.22;;;31.40;66.00;;;;;;5058876;28;20075;-71
2022/08/23 10:02:32;;;;;;;6.38;3.60;;;31.70;64.20;;;;;;5066443;28;20055;-70
2022/08/23 10:05:15;;;;;;;5.57;3.05;;;31.80;59.30;;;;;;5066196;28;20041;-70
2022/08/23 10:07:59;;;;;;;6.00;2.67;;;32.00;61.60;;;;;;5067685;28;20064;-70
2022/08/23 10:10:32;;;;;;;5.05;2.30;;;31.90;59.60;;;;;;5037342;28;20072;-70
2022/08/23 10:12:58;;;;;;;5.70;2.70;;;31.90;60.40;;;;;;5069922;28;20052;-70
2022/08/23 10:15:56;;;;;;;4.78;2.97;;;31.90;60.10;;;;;;5057216;28;20047;-70
2022/08/23 10:18:33;;;;;;;6.85;2.58;;;32.00;61.00;;;;;;5038971;28;20563;-71
2022/08/23 10:21:06;;;;;;;6.05;2.30;;;32.20;59.70;;;;;;5058617;28;20079;-71
2022/08/23 10:23:42;;;;;;;8.83;2.57;;;32.40;60.20;;;;;;5063299;28;20478;-71
2022/08/23 10:26:21;;;;;;;6.15;2.35;;;32.50;58.80;;;;;;5053630;28;20049;-71
2022/08/23 10:31:46;;;;;;;4.57;1.83;;;32.20;58.60;;;;;;5050132;28;20101;-71
2022/08/23 10:34:21;;;;;;;4.32;1.83;;;32.20;59.70;;;;;;5051911;28;20191;-71
2022/08/23 10:37:22;;;;;;;3.15;1.90;;;32.30;54.80;;;;;;5051325;28;20488;-71
2022/08/23 10:40:01;;;;;;;6.45;2.13;;;32.40;56.40;;;;;;5045804;28;20064;-71
2022/08/23 10:42:27;;;;;;;5.30;2.40;;;32.20;53.60;;;;;;5050994;28;20105;-71
2022/08/23 10:45:10;;;;;;;4.85;1.98;;;32.10;55.90;;;;;;5031844;28;20029;-71
2022/08/23 10:47:37;;;;;;;;;;;32.10;54.30;;;;;;5069864;28;20052;-71
2022/08/23 10:50:19;;;;;;;6.57;2.33;;;32.00;53.70;;;;;;5050430;28;20020;-71
2022/08/23 10:52:47;;;;;;;6.07;2.10;;;32.00;55.80;;;;;;5069430;28;20542;-71
2022/08/23 10:55:34;;;;;;;7.13;2.92;;;32.20;56.40;;;;;;5048866;28;20052;-71
2022/08/23 10:58:04;;;;;;;6.72;1.90;;;32.30;55.00;;;;;;5053205;28;20044;-71
2022/08/23 11:00:31;;;;;;;5.45;1.92;;;32.40;56.70;;;;;;5048003;28;20065;-71
2022/08/23 11:03:21;;;;;;;5.25;2.03;;;32.60;54.10;;;;;;5050728;28;20076;-70
2022/08/23 11:06:28;;;;;;;6.78;2.38;;;32.90;53.00;;;;;;5061103;28;20049;-70
2022/08/23 11:09:17;;;;;;;4.57;1.80;;;33.20;53.70;;;;;;5051741;28;20059;-71
2022/08/23 11:11:45;;;;;;;7.20;1.92;;;33.50;51.40;;;;;;5025026;28;20040;-71
2022/08/23 11:14:26;;;;;;;3.75;1.90;;;33.60;52.40;;;;;;5046363;28;20080;-71
2022/08/23 11:17:06;;;;;;;2.95;1.38;;;33.80;52.40;;;;;;5048315;28;20041;-69
2022/08/23 11:19:47;;;;;;;4.93;1.55;;;34.10;50.40;;;;;;5049629;28;20060;-70
2022/08/23 11:22:19;;;;;;;7.85;1.85;;;34.20;50.90;;;;;;5069460;28;20049;-73
2022/08/23 11:25:05;;;;;;;;;;;34.20;49.20;;;;;;5055209;28;20029;-71
2022/08/23 11:27:49;;;;;;;3.88;1.58;;;33.90;49.40;;;;;;5067628;28;19927;-71
2022/08/23 11:30:47;;;;;;;6.43;1.60;;;33.50;49.50;;;;;;5045878;28;20091;-70
2022/08/23 11:33:21;;;;;;;3.28;1.02;;;33.50;49.10;;;;;;5061839;28;20037;-70
2022/08/23 11:35:54;;;;;;;8.55;1.90;;;33.40;50.00;;;;;;5049566;28;20040;-70
2022/08/23 11:38:42;;;;;;;5.68;1.83;;;33.30;50.10;;;;;;5062698;28;20081;-70
2022/08/23 11:41:13;;;;;;;4.38;1.70;;;33.50;50.30;;;;;;5052136;28;20507;-70
2022/08/23 11:43:42;;;;;;;3.97;1.80;;;33.80;48.90;;;;;;5048547;28;20044;-70
2022/08/23 11:46:26;;;;;;;4.88;1.65;;;34.20;48.30;;;;;;5067751;28;20084;-70
2022/08/23 11:49:14;;;;;;;3.72;1.60;;;34.50;48.40;;;;;;5049466;28;20036;-70
2022/08/23 11:52:03;;;;;;;5.10;1.85;;;34.50;47.50;;;;;;5053909;28;20048;-70
2022/08/23 11:54:43;;;;;;;5.13;1.65;;;34.60;48.70;;;;;;5049524;28;20597;-70
2022/08/23 11:57:46;;;;;;;5.85;1.90;;;34.80;47.80;;;;;;5050180;28;20079;-70
2022/08/23 12:00:50;;;;;;;9.23;1.90;;;34.90;47.00;;;;;;5050081;28;20515;-70
2022/08/23 12:03:35;;;;;;;4.15;1.60;;;35.30;45.80;;;;;;5045549;28;20363;-70
2022/08/23 12:06:12;;;;;;;7.97;2.38;;;35.50;46.90;;;;;;5033847;28;20323;-71
2022/08/23 12:08:54;;;;;;;5.90;2.28;;;35.70;45.70;;;;;;5048576;28;20043;-70
2022/08/23 12:11:24;;;;;;;3.83;1.70;;;35.80;45.80;;;;;;5052164;28;20100;-71
2022/08/23 12:13:52;;;;;;;8.30;1.80;;;35.90;45.60;;;;;;5050356;28;20099;-70
2022/08/23 12:16:18;;;;;;;6.53;2.15;;;35.90;43.70;;;;;;5039137;28;20080;-68
2022/08/23 12:18:52;;;;;;;3.85;1.48;;;35.70;43.70;;;;;;5058067;28;20118;-70
2022/08/23 12:21:26;;;;;;;3.83;1.35;;;35.80;45.60;;;;;;5065601;28;20072;-71
2022/08/23 12:23:59;;;;;;;4.20;1.58;;;35.90;43.80;;;;;;5059568;28;20037;-71
2022/08/23 12:26:36;;;;;;;;;;;35.90;43.40;;;;;;5065443;28;20041;-71
2022/08/23 12:29:10;;;;;;;3.97;1.48;;;35.50;42.40;;;;;;5047515;28;19924;-69
2022/08/23 12:31:54;;;;;;;4.80;1.30;;;34.70;44.50;;;;;;5048784;28;20055;-70
2022/08/23 12:34:40;;;;;;;5.88;1.40;;;34.00;45.40;;;;;;5047759;28;20159;-71
2022/08/23 12:37:44;;;;;;;5.03;1.73;;;33.40;47.50;;;;;;5066283;28;20453;-72
2022/08/23 12:40:34;;;;;;;4.25;1.50;;;32.70;47.10;;;;;;5017011;28;20534;-71
2022/08/23 12:43:24;;;;;;;6.60;1.73;;;32.20;47.60;;;;;;5064567;28;20107;-71
2022/08/23 12:45:56;;;;;;;4.10;1.90;;;31.90;50.00;;;;;;5040963;28;20132;-70
2022/08/23 12:48:30;;;;;;;4.25;1.40;;;31.70;51.00;;;;;;5042579;28;20036;-70
2022/08/23 12:51:02;;;;;;;7.05;2.17;;;31.50;50.10;;;;;;5042369;28;20041;-70
2022/08/23 12:53:34;;;;;;;8.02;1.52;;;31.40;50.50;;;;;;5047243;28;20041;-70
2022/08/23 12:56:07;;;;;;;4.18;1.40;;;31.20;50.60;;;;;;5063622;28;20098;-71
2022/08/23 12:58:37;;;;;;;8.90;1.85;;;31.10;51.20;;;;;;5069294;28;20047;-70
2022/08/23 13:01:16;;;;;;;5.88;1.60;;;30.80;49.80;;;;;;5042411;28;20080;-70
2022/08/23 13:03:45;;;;;;;3.22;1.40;;;30.60;51.00;;;;;;5069609;28;20060;-70
2022/08/23 13:06:14;;;;;;;5.05;1.42;;;30.50;49.60;;;;;;5050340;28;20056;-70
2022/08/23 13:08:46;;;;;;;4.85;1.92;;;30.30;49.90;;;;;;5040726;28;20044;-71
2022/08/23 13:11:16;;;;;;;3.42;1.42;;;30.20;51.30;;;;;;5055580;28;20045;-70
2022/08/23 13:13:43;;;;;;;4.47;1.63;;;30.20;49.80;;;;;;5045863;28;20113;-70